WetterOnline ( https://www.wetteronline.at )

Wetter aktuell Waren (Müritz)

Aktuelles Wetter: Waren (71m)

6-stündlich | Neueste Meldungen
Ortszeit Temperatur Wetter
Mo, 06.07. 8:00 14.0° C leichter Regen
Mo, 06.07. 2:00 15.0° C bewölkt
So, 05.07. 20:00 21.2° C bewölkt
So, 05.07. 14:00 21.5° C bedeckt
So, 05.07. 8:00 18.8° C bewölkt
So, 05.07. 2:00 18.4° C bewölkt
Sa, 04.07. 20:00 19.3° C bedeckt
Sa, 04.07. 14:00 19.6° C bedeckt
Ortszeit Temperatur Wetter
Mo, 06.07. 10:30 16.8° C wolkig
Mo, 06.07. 10:20 16.8° C wolkig
Mo, 06.07. 10:10 16.6° C leicht bewölkt
Mo, 06.07. 10:00 16.3° C wolkig
Mo, 06.07. 9:50 16.3° C wolkig
Mo, 06.07. 9:40 16.4° C wolkig
Mo, 06.07. 9:30 15.7° C leicht bewölkt
Mo, 06.07. 9:00 15.4° C leicht bewölkt
Mo, 06.07. 7:00 15.1° C bewölkt
Ortszeit Relative Feuchte Sichtweite
Mo, 06.07. 8:00 79% 30 km
Mo, 06.07. 2:00 77% 40 km
So, 05.07. 20:00 63% >70 km
So, 05.07. 14:00 73% 65 km
So, 05.07. 8:00 87% >70 km
So, 05.07. 2:00 83% 60 km
Sa, 04.07. 20:00 72% 55 km
Sa, 04.07. 14:00 60% 50 km
Ortszeit Relative Feuchte Sichtweite
Mo, 06.07. 10:30 59% 45 km
Mo, 06.07. 10:20 59% -
Mo, 06.07. 10:10 60% -
Mo, 06.07. 10:00 62% 40 km
Mo, 06.07. 9:50 62% -
Mo, 06.07. 9:40 66% -
Mo, 06.07. 9:30 67% 40 km
Mo, 06.07. 9:00 70% 50 km
Mo, 06.07. 7:00 81% 45 km
Ortszeit Niederschlagsmenge Niederschlagsart
Mo, 06.07. 8:00 0.1 l/m2 in 12 Std. Regen
Mo, 06.07. 2:00 0.1 l/m2 in 6 Std. Regen
So, 05.07. 20:00 1 l/m2 in 12 Std. Regen
So, 05.07. 14:00 0.1 l/m2 in 6 Std. Regen
So, 05.07. 8:00 2 l/m2 in 12 Std. Regen
So, 05.07. 2:00 0.4 l/m2 in 6 Std. Regen
Sa, 04.07. 20:00 0.2 l/m2 in 12 Std. Regen
Sa, 04.07. 14:00 0.1 l/m2 in 6 Std. Regen
Ortszeit Niederschlagsmenge Niederschlagsart
Mo, 06.07. 10:30 0.0 l/m2 in 1 Std. -
Mo, 06.07. 10:20 keine Meldung -
Mo, 06.07. 10:10 keine Meldung -
Mo, 06.07. 10:00 0.0 l/m2 in 1 Std. -
Mo, 06.07. 9:50 keine Meldung -
Mo, 06.07. 9:40 keine Meldung -
Mo, 06.07. 9:30 0.0 l/m2 in 1 Std. -
Mo, 06.07. 9:00 0.1 l/m2 in 1 Std. Regen
Mo, 06.07. 7:00 keine Meldung -
Ortszeit Stärke Spitze Richtung
km/h Bft. km/h Grad Sektor
Mo, 06.07. 8:00 20 4 35 250° W
Mo, 06.07. 2:00 6 1 28 290° W
So, 05.07. 20:00 14 3 40 240° SW
So, 05.07. 14:00 18 3 54 230° SW
So, 05.07. 8:00 20 4 35 210° SW
So, 05.07. 2:00 14 3 29 210° SW
Sa, 04.07. 20:00 11 2 47 220° SW
Sa, 04.07. 14:00 26 4 48 220° SW
Ortszeit Stärke Spitze Richtung
km/h Bft. km/h Grad Sektor
Mo, 06.07. 10:30 20 4 43 240° SW
Mo, 06.07. 10:20 20 4 - 240° SW
Mo, 06.07. 10:10 25 4 - 250° W
Mo, 06.07. 10:00 22 4 47 260° W
Mo, 06.07. 9:50 22 4 - 260° W
Mo, 06.07. 9:40 20 4 - 260° W
Mo, 06.07. 9:30 18 3 47 250° W
Mo, 06.07. 9:00 22 4 40 250° W
Mo, 06.07. 7:00 11 2 25 240° SW
Ortszeit Untergrenze Bedeckung Gattung
total tief tief mittel hoch
Mo, 06.07. 8:00 570 m 8/8 8/8 - - -
Mo, 06.07. 2:00 1500 m 7/8 7/8 - - -
So, 05.07. 20:00 1800 m 8/8 7/8 - - -
So, 05.07. 14:00 810 m 8/8 8/8 - - -
So, 05.07. 8:00 540 m 7/8 7/8 - - -
So, 05.07. 2:00 720 m 7/8 7/8 - - -
Sa, 04.07. 20:00 1050 m 8/8 8/8 - - -
Sa, 04.07. 14:00 1080 m 8/8 8/8 - - -
Ortszeit Bedeckungsgrad in Achtel und Wolkenuntergrenze
Mo, 06.07. 10:30 2(1020m) 4(1350m) 5(1800m)
Mo, 06.07. 10:20 2(1020m) 4(1350m) 5(1800m)
Mo, 06.07. 10:10 1(780m) 3(1260m) 4(1800m)
Mo, 06.07. 10:00 4(810m) 5(1020m) 5(1230m)
Mo, 06.07. 9:50 4(810m) 5(1020m) 5(1230m)
Mo, 06.07. 9:40 3(810m) 5(990m)
Mo, 06.07. 9:30 1(720m) 5(990m)
Mo, 06.07. 9:00 4(2400m)
Mo, 06.07. 7:00 3(600m) 6(1050m) 7(2100m)
Ortszeit Luftdruck NN (hPa) Tendenz (hPa in 3 Std.)
Mo, 06.07. 8:00 1007 + 0,7
Mo, 06.07. 2:00 1007 + 0,1
So, 05.07. 20:00 1006 - 0,5
So, 05.07. 14:00 1006 - 0,3
So, 05.07. 8:00 1007 - 1,1
So, 05.07. 2:00 1010 - 1,3
Sa, 04.07. 20:00 1011 - 0,4
Sa, 04.07. 14:00 1012 - 0,9
Ortszeit Luftdruck NN (hPa) Tendenz (hPa in 3 Std.)
Mo, 06.07. 10:30 1007 + 0,6
Mo, 06.07. 10:20 1007 keine Meldung
Mo, 06.07. 10:10 1007 keine Meldung
Mo, 06.07. 10:00 1007 + 0,8
Mo, 06.07. 9:50 1007 keine Meldung
Mo, 06.07. 9:40 1007 keine Meldung
Mo, 06.07. 9:30 1007 + 0,9
Mo, 06.07. 9:00 1007 + 0,9
Mo, 06.07. 7:00 1007 + 0,3
Ortszeit Schneehöhe (cm)
Mo, 06.07. 8:00 -
Mo, 06.07. 2:00 -
So, 05.07. 20:00 -
So, 05.07. 14:00 -
So, 05.07. 8:00 -
So, 05.07. 2:00 -
Sa, 04.07. 20:00 -
Sa, 04.07. 14:00 -
Ortszeit Schneehöhe (cm)
Mo, 06.07. 10:30 -
Mo, 06.07. 10:20 -
Mo, 06.07. 10:10 -
Mo, 06.07. 10:00 -
Mo, 06.07. 9:50 -
Mo, 06.07. 9:40 -
Mo, 06.07. 9:30 -
Mo, 06.07. 9:00 -
Mo, 06.07. 7:00 -
Link zu dieser Seite / Seite empfehlen

Das Wetter in ...